Time;durP1;ratioP1;P1;durP2;ratioP2;P2;SDS_P1;SDS_P2;PMS_P1;PMS_P2;Temp;Humidity;BMP_temperature;BMP_pressure;BME280_temperature;BME280_humidity;BME280_pressure;Samples;Min_cycle;Max_cycle;Signal;HPM_P1;HPM_P2
2022/12/28 00:02:38;;;;;;;8.55;4.95;;;;;;;3.22;87.90;101086.28;2884822;80;21312;-86
2022/12/28 00:06:39;;;;;;;11.97;7.17;;;;;;;3.19;88.48;101077.65;2925838;79;21489;-85
2022/12/28 00:10:41;;;;;;;9.23;6.58;;;;;;;3.14;89.06;101067.30;2961410;78;20968;-86
2022/12/28 00:14:42;;;;;;;13.35;4.90;;;;;;;3.10;89.15;101065.70;2946682;79;21464;-86
2022/12/28 00:18:44;;;;;;;10.10;5.05;;;;;;;3.07;89.63;101060.13;2884928;80;21473;-86
2022/12/28 00:22:45;;;;;;;5.62;4.33;;;;;;;3.09;89.69;101052.16;2901343;79;21030;-86
2022/12/28 00:26:46;;;;;;;7.17;3.65;;;;;;;3.10;89.88;101051.25;2950641;78;21517;-86
2022/12/28 00:30:48;;;;;;;7.45;5.10;;;;;;;3.09;89.81;101047.78;2962671;78;21016;-85
2022/12/28 00:34:49;;;;;;;9.60;5.00;;;;;;;3.11;89.89;101054.27;2845447;79;21644;-85
2022/12/28 00:38:50;;;;;;;8.03;5.45;;;;;;;3.11;89.89;101051.20;2954721;78;20971;-85
2022/12/28 00:42:51;;;;;;;10.58;3.30;;;;;;;3.11;90.04;101045.08;2970414;78;21621;-86
2022/12/28 00:46:52;;;;;;;6.72;3.80;;;;;;;3.10;90.09;101035.03;2950707;78;21265;-86
2022/12/28 00:51:03;;;;;;;8.20;4.30;;;;;;;3.13;90.03;101032.28;2942656;78;20982;-85
2022/12/28 00:55:05;;;;;;;7.97;4.92;;;;;;;3.15;89.81;101024.34;2938315;78;21097;-86
2022/12/28 00:59:06;;;;;;;6.20;5.22;;;;;;;3.16;89.94;101026.50;2957907;78;21041;-86
2022/12/28 01:03:08;;;;;;;6.87;4.60;;;;;;;3.18;89.91;101018.96;2932734;78;20974;-86
2022/12/28 01:07:10;;;;;;;15.10;6.42;;;;;;;3.20;89.94;101017.13;2865430;78;21018;-86
2022/12/28 01:11:22;;;;;;;7.15;5.25;;;;;;;3.19;90.31;101005.34;2942596;78;21025;-86
2022/12/28 01:15:23;;;;;;;12.98;4.97;;;;;;;3.23;90.15;101010.42;2965979;78;21065;-86
2022/12/28 01:19:24;;;;;;;7.78;4.65;;;;;;;3.27;89.62;101005.44;2985964;78;21642;-86
2022/12/28 01:23:25;;;;;;;7.42;4.87;;;;;;;3.26;89.56;100993.20;2986539;78;21002;-86
2022/12/28 01:27:26;;;;;;;7.30;5.20;;;;;;;3.25;89.63;100990.66;3001825;77;21010;-86
2022/12/28 01:31:28;;;;;;;8.83;5.67;;;;;;;3.22;90.10;100994.25;2998720;77;21049;-86
2022/12/28 01:35:29;;;;;;;10.35;6.60;;;;;;;3.22;90.42;100990.31;2986110;78;21066;-86
2022/12/28 01:39:30;;;;;;;15.55;11.50;;;;;;;3.22;90.12;100987.68;2960139;78;21022;-86
2022/12/28 01:43:49;;;;;;;14.53;6.70;;;;;;;3.20;89.75;100988.20;2965038;77;21026;-85
2022/12/28 01:47:54;;;;;;;10.40;5.08;;;;;;;3.17;89.99;100990.96;2959535;78;21069;-85
2022/12/28 01:52:07;;;;;;;8.63;4.58;;;;;;;3.14;90.65;100993.69;2980412;77;21601;-85
2022/12/28 01:56:08;;;;;;;9.18;4.45;;;;;;;3.14;91.27;100984.03;2988311;77;21010;-85
2022/12/28 02:00:13;;;;;;;10.20;3.98;;;;;;;3.19;91.08;100964.14;2968273;78;21058;-85
2022/12/28 02:04:15;;;;;;;7.97;4.25;;;;;;;3.17;91.23;100958.09;2972921;77;21018;-85
2022/12/28 02:08:27;;;;;;;5.35;4.10;;;;;;;3.17;91.81;100948.89;2968971;78;21693;-85
2022/12/28 02:12:28;;;;;;;12.13;8.83;;;;;;;3.17;91.93;100941.00;2969745;78;21817;-85
2022/12/28 02:16:30;;;;;;;13.62;7.75;;;;;;;3.17;91.78;100922.60;2975054;77;20923;-85
2022/12/28 02:20:40;;;;;;;9.75;7.55;;;;;;;3.22;91.58;100929.83;2982113;77;21532;-85
2022/12/28 02:25:22;;;;;;;12.85;7.08;;;;;;;3.26;91.21;100915.64;2953500;77;21011;-85
2022/12/28 02:29:45;;;;;;;11.65;5.85;;;;;;;3.22;90.91;100914.50;2970322;78;22082;-85
2022/12/28 02:34:04;;;;;;;6.22;5.05;;;;;;;3.16;91.47;100905.12;2994169;78;21613;-86
2022/12/28 02:38:17;;;;;;;7.37;5.15;;;;;;;3.20;91.81;100905.38;2974670;78;21124;-85
2022/12/28 02:42:21;;;;;;;7.75;4.65;;;;;;;3.24;92.52;100909.59;2997760;77;21077;-86
2022/12/28 02:50:53;;;;;;;;;;;;;;;3.45;93.09;100902.20;2975998;77;21011;-85
2022/12/28 03:00:05;;;;;;;7.25;3.50;;;;;;;3.67;92.71;100882.38;2967438;77;21712;-84
2022/12/28 03:04:45;;;;;;;5.97;3.90;;;;;;;3.71;92.85;100869.48;2940414;77;21648;-85
2022/12/28 03:09:01;;;;;;;6.80;3.85;;;;;;;3.81;92.21;100862.91;2834903;80;21082;-85
2022/12/28 03:13:41;;;;;;;7.83;4.53;;;;;;;3.96;91.73;100853.46;2836886;82;21601;-85
2022/12/28 03:34:42;;;;;;;5.03;4.12;;;;;;;4.25;90.44;100830.67;2869448;82;21059;-85
2022/12/28 03:38:58;;;;;;;8.45;5.92;;;;;;;4.19;90.64;100821.75;2851801;82;21042;-85
2022/12/28 03:47:32;;;;;;;9.18;5.53;;;;;;;4.16;91.29;100815.31;2998664;77;21631;-85
2022/12/28 03:51:34;;;;;;;7.42;5.17;;;;;;;4.17;91.42;100804.69;2965245;78;21022;-85
2022/12/28 03:55:39;;;;;;;6.72;4.25;;;;;;;4.17;91.40;100799.42;2956404;78;21073;-86
2022/12/28 03:59:40;;;;;;;12.30;4.95;;;;;;;4.12;91.68;100794.36;2998639;77;21010;-85
2022/12/28 04:03:42;;;;;;;11.60;5.87;;;;;;;4.15;91.18;100793.37;2902950;79;21046;-85
2022/12/28 04:07:43;;;;;;;9.05;5.15;;;;;;;4.17;90.78;100795.47;2937835;79;21549;-85
2022/12/28 04:11:44;;;;;;;7.17;4.65;;;;;;;3.99;91.39;100779.61;2960124;79;21032;-85
2022/12/28 04:15:59;;;;;;;9.65;5.53;;;;;;;4.02;91.22;100783.02;2942473;79;21026;-85
2022/12/28 04:20:01;;;;;;;35.52;19.70;;;;;;;3.84;91.78;100770.65;2917602;79;21046;-85
2022/12/28 04:24:02;;;;;;;13.18;8.00;;;;;;;3.83;91.72;100774.20;2923690;78;20977;-85
2022/12/28 04:28:04;;;;;;;9.60;5.92;;;;;;;3.84;91.51;100754.02;2964057;79;21026;-85
2022/12/28 04:32:05;;;;;;;12.78;6.03;;;;;;;3.85;91.41;100743.41;2936335;79;20971;-85
2022/12/28 04:36:11;;;;;;;11.75;5.65;;;;;;;3.80;91.69;100736.64;2944521;79;21381;-85
2022/12/28 04:40:12;;;;;;;4.65;4.05;;;;;;;3.83;91.21;100731.23;2954609;78;21010;-85
2022/12/28 04:44:14;;;;;;;7.47;4.08;;;;;;;3.86;91.12;100724.05;2943567;79;20971;-84
2022/12/28 04:48:15;;;;;;;8.00;4.72;;;;;;;3.85;91.00;100726.77;2950854;78;21011;-84
2022/12/28 04:52:16;;;;;;;6.80;4.53;;;;;;;3.78;91.10;100721.39;2845681;79;20978;-85
2022/12/28 04:56:20;;;;;;;10.13;4.75;;;;;;;3.68;92.01;100710.44;2997314;78;21018;-85
2022/12/28 05:00:21;;;;;;;6.60;5.05;;;;;;;3.58;93.30;100703.42;2978588;78;21298;-85
2022/12/28 05:04:22;;;;;;;10.98;5.37;;;;;;;3.58;93.36;100704.74;2892706;79;21022;-85
2022/12/28 05:08:23;;;;;;;6.72;5.08;;;;;;;3.66;93.08;100701.31;2960666;78;21006;-85
2022/12/28 05:12:25;;;;;;;7.28;5.10;;;;;;;3.71;92.71;100701.08;2972271;78;21354;-84
2022/12/28 05:16:28;;;;;;;7.95;5.58;;;;;;;3.78;92.06;100693.31;2959544;79;20999;-84
2022/12/28 05:20:29;;;;;;;6.37;4.22;;;;;;;3.78;92.11;100693.31;2951576;78;20979;-85
2022/12/28 05:24:30;;;;;;;7.12;4.87;;;;;;;3.81;91.70;100688.34;2968432;78;21033;-85
2022/12/28 05:28:32;;;;;;;7.20;4.15;;;;;;;3.82;91.96;100693.55;2953989;79;20983;-86
2022/12/28 05:32:33;;;;;;;5.58;3.87;;;;;;;3.90;91.63;100683.11;2942007;79;21022;-85
2022/12/28 05:36:36;;;;;;;7.87;4.40;;;;;;;3.93;91.47;100683.83;2938972;79;21031;-86
2022/12/28 05:40:38;;;;;;;6.15;4.50;;;;;;;3.95;91.74;100673.23;2936183;79;21034;-85
2022/12/28 05:44:39;;;;;;;7.33;5.20;;;;;;;3.98;91.50;100665.19;2939392;79;21601;-85
2022/12/28 05:48:42;;;;;;;13.72;6.70;;;;;;;4.00;91.23;100670.75;2924873;79;21001;-85
2022/12/28 05:52:43;;;;;;;10.82;5.60;;;;;;;4.04;91.35;100657.47;2947246;79;21538;-85
2022/12/28 05:56:45;;;;;;;8.60;4.83;;;;;;;4.07;91.12;100639.72;2943796;79;21057;-86
2022/12/28 06:00:46;;;;;;;8.60;4.83;;;;;;;4.07;91.12;100643.66;2938961;79;21357;-85
2022/12/28 06:04:48;;;;;;;5.53;5.08;;;;;;;4.05;91.41;100646.84;2885346;79;21034;-85
2022/12/28 06:08:49;;;;;;;10.20;6.12;;;;;;;4.15;90.94;100647.23;2916547;79;21052;-85
2022/12/28 06:12:51;;;;;;;11.43;7.72;;;;;;;4.10;90.96;100639.56;2965551;78;21551;-85
2022/12/28 06:16:52;;;;;;;17.00;10.55;;;;;;;4.15;90.94;100645.92;2963784;79;21019;-85
2022/12/28 06:20:54;;;;;;;15.83;9.98;;;;;;;4.24;90.67;100652.52;2945745;79;21027;-84
2022/12/28 06:24:55;;;;;;;12.80;7.83;;;;;;;4.22;90.58;100649.11;2941634;79;21018;-84
2022/12/28 06:28:57;;;;;;;12.25;9.08;;;;;;;4.27;90.38;100639.19;2976229;79;21007;-84
2022/12/28 06:32:58;;;;;;;18.67;11.38;;;;;;;4.25;89.92;100648.50;2968334;78;20993;-85
2022/12/28 06:37:00;;;;;;;12.23;8.43;;;;;;;4.32;89.68;100642.44;2971166;78;21046;-85
2022/12/28 06:41:04;;;;;;;10.30;5.75;;;;;;;4.34;89.66;100645.88;2891058;79;21031;-86
2022/12/28 06:45:07;;;;;;;6.47;4.47;;;;;;;4.35;89.51;100654.16;2960288;78;21285;-85
2022/12/28 06:49:09;;;;;;;13.13;6.00;;;;;;;4.37;89.52;100650.98;2918666;80;21553;-88
2022/12/28 06:53:10;;;;;;;6.83;5.10;;;;;;;4.37;89.71;100652.31;2932858;79;21030;-86
2022/12/28 06:57:11;;;;;;;4.87;4.33;;;;;;;4.34;90.17;100651.14;2966588;79;21050;-86
2022/12/28 07:01:17;;;;;;;8.68;5.65;;;;;;;4.38;90.07;100648.73;2909929;79;21035;-85
2022/12/28 07:05:18;;;;;;;6.00;5.33;;;;;;;4.36;90.28;100649.73;2959228;78;21523;-86
2022/12/28 07:09:19;;;;;;;5.22;4.72;;;;;;;4.38;90.48;100649.19;2916400;80;21003;-86
2022/12/28 07:13:21;;;;;;;7.12;4.42;;;;;;;4.33;91.03;100646.81;2927032;80;21019;-86
2022/12/28 07:17:22;;;;;;;7.40;4.62;;;;;;;4.33;91.34;100644.17;2894969;80;21016;-85
2022/12/28 07:21:27;;;;;;;6.30;5.05;;;;;;;4.32;91.49;100643.76;2884160;80;20999;-86
2022/12/28 07:25:29;;;;;;;6.83;4.23;;;;;;;4.34;91.18;100643.24;2902766;80;21021;-85
2022/12/28 07:29:30;;;;;;;5.92;5.10;;;;;;;4.37;91.21;100638.27;2920196;80;21570;-85
2022/12/28 07:33:32;;;;;;;7.20;6.12;;;;;;;4.37;91.21;100643.09;2914964;79;21022;-85
2022/12/28 07:37:33;;;;;;;8.88;5.58;;;;;;;4.41;91.46;100640.68;2919274;79;21042;-86
2022/12/28 07:41:35;;;;;;;6.05;4.75;;;;;;;4.40;91.59;100628.44;2906408;80;21297;-86
2022/12/28 07:45:36;;;;;;;5.90;4.37;;;;;;;4.41;91.72;100632.78;2890309;80;21030;-85
2022/12/28 07:49:39;;;;;;;5.67;4.95;;;;;;;4.45;91.81;100627.34;2902319;80;21066;-85
2022/12/28 07:53:42;;;;;;;4.92;3.80;;;;;;;4.48;91.04;100606.98;2897907;80;21582;-86
2022/12/28 07:57:44;;;;;;;8.23;4.85;;;;;;;4.53;90.71;100608.07;2924928;79;20979;-86
2022/12/28 08:01:45;;;;;;;6.28;4.05;;;;;;;4.61;89.98;100590.52;2888998;80;20969;-87
2022/12/28 08:05:46;;;;;;;7.83;3.60;;;;;;;4.67;89.29;100598.12;2900939;80;21042;-88
2022/12/28 08:09:48;;;;;;;3.77;3.42;;;;;;;4.78;89.29;100602.83;2953359;80;20979;-89
2022/12/28 08:13:52;;;;;;;5.53;4.05;;;;;;;4.79;89.12;100601.89;2998836;79;21056;-89
2022/12/28 08:17:55;;;;;;;6.67;3.45;;;;;;;4.89;89.31;100592.55;2980918;78;20955;-88
2022/12/28 08:21:56;;;;;;;3.65;2.87;;;;;;;4.92;88.92;100591.09;2972863;79;21573;-88
2022/12/28 08:26:14;;;;;;;7.22;4.12;;;;;;;4.95;88.42;100580.38;2871263;80;21007;-89
2022/12/28 08:30:15;;;;;;;12.78;5.20;;;;;;;5.03;87.22;100570.75;2968400;79;21015;-88
2022/12/28 08:34:25;;;;;;;7.15;4.87;;;;;;;5.10;87.09;100571.23;2938929;79;21634;-88
2022/12/28 08:38:27;;;;;;;8.13;5.03;;;;;;;5.15;86.29;100566.59;2955687;78;20987;-88
2022/12/28 08:42:28;;;;;;;6.62;5.70;;;;;;;5.28;85.14;100564.95;2953350;79;21637;-88
2022/12/28 08:46:33;;;;;;;9.73;5.72;;;;;;;5.34;84.58;100564.25;2924790;80;21027;-89
2022/12/28 08:50:34;;;;;;;8.50;5.78;;;;;;;5.39;84.59;100559.08;2923613;79;21038;-87
2022/12/28 08:54:36;;;;;;;7.25;6.03;;;;;;;5.48;84.30;100560.36;2911260;78;21752;-87
2022/12/28 08:58:40;;;;;;;9.23;4.50;;;;;;;5.56;83.91;100549.37;2966407;78;21065;-87
2022/12/28 09:02:41;;;;;;;10.00;6.80;;;;;;;5.62;83.68;100547.73;2939248;80;20949;-87
2022/12/28 09:06:42;;;;;;;8.80;5.70;;;;;;;5.62;83.71;100538.94;2977737;79;21106;-87
2022/12/28 09:10:44;;;;;;;9.55;4.15;;;;;;;5.69;82.89;100541.60;2967875;78;21053;-87
2022/12/28 09:14:45;;;;;;;10.32;4.90;;;;;;;5.68;82.96;100536.81;2958799;78;21035;-87
2022/12/28 09:18:46;;;;;;;19.02;8.88;;;;;;;5.71;83.44;100530.52;2939325;79;20959;-86
2022/12/28 09:22:48;;;;;;;16.45;9.33;;;;;;;5.76;82.42;100523.17;2979904;78;21507;-86
2022/12/28 09:26:51;;;;;;;17.42;5.75;;;;;;;5.76;82.29;100523.17;2993776;79;20982;-86
2022/12/28 09:30:52;;;;;;;12.65;3.58;;;;;;;5.85;81.64;100522.63;2989118;79;20982;-87
2022/12/28 09:34:53;;;;;;;7.67;4.65;;;;;;;5.87;81.94;100518.58;2931368;79;21011;-86
2022/12/28 09:38:55;;;;;;;5.28;3.52;;;;;;;5.98;82.17;100514.83;2964091;78;21015;-86
2022/12/28 09:42:56;;;;;;;9.00;4.22;;;;;;;5.97;81.69;100499.92;2947953;79;21014;-86
2022/12/28 09:47:20;;;;;;;4.75;3.45;;;;;;;6.06;81.76;100496.41;2971232;79;21489;-86
2022/12/28 09:51:27;;;;;;;5.55;4.47;;;;;;;6.11;81.06;100493.88;2904147;80;21022;-86
2022/12/28 09:55:29;;;;;;;4.72;3.60;;;;;;;6.21;81.09;100483.61;2964548;79;21065;-86
2022/12/28 09:59:33;;;;;;;7.42;3.50;;;;;;;6.28;80.42;100482.28;2948965;80;21622;-86
2022/12/28 10:03:40;;;;;;;8.08;3.92;;;;;;;6.44;80.31;100480.03;2943558;79;20984;-86
2022/12/28 10:07:42;;;;;;;9.75;4.15;;;;;;;6.59;79.84;100473.42;2969235;78;20966;-86
2022/12/28 10:11:44;;;;;;;6.97;4.72;;;;;;;6.87;79.29;100468.55;2950140;79;21054;-88
2022/12/28 10:15:45;;;;;;;6.40;3.17;;;;;;;7.00;78.24;100462.86;2971685;78;20995;-86
2022/12/28 10:19:47;;;;;;;4.78;3.15;;;;;;;6.98;77.85;100455.50;2977306;78;20987;-86
2022/12/28 10:23:53;;;;;;;5.40;4.03;;;;;;;7.05;78.79;100453.77;2954337;78;21011;-87
2022/12/28 10:27:54;;;;;;;4.30;2.30;;;;;;;7.13;78.96;100451.00;2983495;79;21045;-84
2022/12/28 10:32:08;;;;;;;7.05;3.75;;;;;;;7.11;79.60;100449.43;2971945;78;21086;-86
2022/12/28 10:36:14;;;;;;;2.90;2.17;;;;;;;7.08;79.70;100429.80;2968120;78;21007;-85
2022/12/28 10:40:21;;;;;;;6.03;3.62;;;;;;;7.10;80.11;100423.92;2980070;78;21224;-85
2022/12/28 10:44:34;;;;;;;4.05;3.15;;;;;;;7.14;80.33;100416.16;2977795;78;21562;-85
2022/12/28 10:48:39;;;;;;;14.47;4.95;;;;;;;7.18;80.53;100404.91;2982512;78;21563;-85
2022/12/28 10:52:40;;;;;;;13.55;4.53;;;;;;;7.23;79.23;100393.05;2968090;77;21007;-85
2022/12/28 10:56:48;;;;;;;4.47;3.67;;;;;;;7.25;78.67;100391.64;2952559;79;21599;-85
2022/12/28 11:01:00;;;;;;;8.48;4.15;;;;;;;7.29;78.52;100391.34;2898484;80;21003;-86
2022/12/28 11:05:04;;;;;;;5.22;4.42;;;;;;;7.34;78.10;100386.20;2886627;81;21019;-86
2022/12/28 11:09:22;;;;;;;6.58;4.87;;;;;;;7.45;78.23;100375.73;2957535;79;21664;-85
2022/12/28 11:13:23;;;;;;;7.10;4.12;;;;;;;7.54;77.35;100360.56;2947936;79;21038;-86
2022/12/28 11:17:27;;;;;;;5.67;5.08;;;;;;;7.51;77.04;100344.03;2929400;78;21021;-85
2022/12/28 11:21:32;;;;;;;4.78;3.27;;;;;;;7.48;77.92;100339.81;2965764;78;22268;-85
2022/12/28 11:25:35;;;;;;;6.50;4.08;;;;;;;7.52;77.75;100325.88;2940871;79;21007;-86
2022/12/28 11:29:41;;;;;;;5.70;4.15;;;;;;;7.56;78.38;100301.75;2944609;78;21011;-86
2022/12/28 11:33:50;;;;;;;7.58;5.60;;;;;;;7.62;77.18;100294.33;2972729;79;21061;-85
2022/12/28 11:37:55;;;;;;;6.30;4.53;;;;;;;7.70;78.15;100297.30;2976157;78;21169;-85
2022/12/28 11:42:00;;;;;;;6.63;3.63;;;;;;;7.79;78.25;100297.14;2993489;79;21834;-85
2022/12/28 11:46:03;;;;;;;6.78;3.75;;;;;;;7.99;77.70;100291.28;2981657;79;21002;-86
2022/12/28 11:50:33;;;;;;;5.42;3.83;;;;;;;8.13;77.26;100282.80;2953121;79;21034;-86
2022/12/28 11:54:50;;;;;;;7.28;3.98;;;;;;;8.14;76.51;100272.56;2808057;82;21005;-86
2022/12/28 11:59:05;;;;;;;4.25;2.72;;;;;;;8.15;76.97;100257.90;2820243;83;21553;-86
2022/12/28 12:03:06;;;;;;;6.75;2.98;;;;;;;8.09;77.58;100256.16;2805973;83;21147;-86
2022/12/28 12:07:22;;;;;;;5.42;2.98;;;;;;;8.10;77.97;100257.86;2799468;82;21089;-86
2022/12/28 12:11:31;;;;;;;10.90;2.77;;;;;;;8.04;77.09;100257.81;2753939;85;20996;-86
2022/12/28 12:15:39;;;;;;;3.47;2.77;;;;;;;8.10;78.02;100258.72;2758001;85;21340;-86
2022/12/28 12:19:48;;;;;;;3.50;2.25;;;;;;;8.17;78.39;100258.27;2761239;86;21020;-86
2022/12/28 12:23:54;;;;;;;3.47;2.42;;;;;;;8.13;76.88;100247.89;2739993;86;21564;-87
2022/12/28 12:28:04;;;;;;;4.95;3.22;;;;;;;8.14;78.20;100244.28;2757396;86;21391;-86
2022/12/28 12:32:25;;;;;;;3.62;2.15;;;;;;;8.04;77.89;100228.67;2845645;81;21530;-86
2022/12/28 12:36:40;;;;;;;5.22;2.27;;;;;;;7.97;77.95;100227.44;2926171;80;21002;-86
2022/12/28 12:40:56;;;;;;;5.50;2.85;;;;;;;7.87;78.66;100216.66;2912253;80;21705;-87
2022/12/28 12:45:05;;;;;;;4.27;2.70;;;;;;;7.85;79.50;100208.80;2919137;80;21003;-87
2022/12/28 12:49:36;;;;;;;9.15;3.55;;;;;;;7.88;80.30;100212.22;2907641;80;21062;-86
2022/12/28 12:53:52;;;;;;;3.92;2.95;;;;;;;7.92;80.68;100213.69;2914503;80;21591;-87
2022/12/28 12:58:10;;;;;;;4.40;3.35;;;;;;;7.99;81.02;100209.16;2893436;80;21063;-87
2022/12/28 13:02:37;;;;;;;8.20;3.83;;;;;;;8.07;80.81;100212.58;2928905;80;21018;-88
2022/12/28 13:06:39;;;;;;;4.92;3.30;;;;;;;8.12;81.55;100196.33;2876176;79;20995;-87
2022/12/28 13:10:43;;;;;;;4.47;2.92;;;;;;;8.11;81.38;100202.59;2948793;79;21391;-87
2022/12/28 13:14:49;;;;;;;4.85;3.10;;;;;;;8.13;82.31;100204.17;2968033;79;21700;-87
2022/12/28 13:18:59;;;;;;;9.45;3.85;;;;;;;8.09;82.12;100192.12;2963691;79;21018;-87
2022/12/28 13:23:00;;;;;;;4.00;3.02;;;;;;;8.11;82.50;100180.92;2969189;79;21057;-86
2022/12/28 13:27:02;;;;;;;5.10;3.52;;;;;;;8.10;81.80;100181.02;2934814;79;21600;-86
2022/12/28 13:31:21;;;;;;;6.37;4.05;;;;;;;8.20;82.18;100173.24;2969886;79;21031;-86
2022/12/28 13:35:30;;;;;;;7.03;5.08;;;;;;;8.20;81.99;100179.87;2987292;78;21038;-86
2022/12/28 13:39:33;;;;;;;13.40;5.15;;;;;;;8.25;82.62;100172.42;2966582;79;21011;-90
2022/12/28 13:44:25;;;;;;;7.60;5.33;;;;;;;8.31;83.16;100174.63;2969898;79;21557;-91
2022/12/28 13:48:29;;;;;;;7.00;4.75;;;;;;;8.34;83.14;100172.22;2975417;79;21011;-91
2022/12/28 13:52:51;;;;;;;5.40;3.33;;;;;;;8.40;83.21;100169.13;2963501;79;21070;-85
2022/12/28 13:56:55;;;;;;;4.12;2.70;;;;;;;8.47;83.15;100169.52;2938911;80;21093;-89
2022/12/28 14:01:00;;;;;;;4.55;3.85;;;;;;;8.50;83.14;100172.80;2949475;79;21312;-88
2022/12/28 14:05:01;;;;;;;6.15;3.00;;;;;;;8.48;82.29;100166.73;2968406;79;21034;-89
2022/12/28 14:09:03;;;;;;;5.37;3.17;;;;;;;8.45;82.35;100160.34;2973491;78;21606;-88
2022/12/28 14:13:06;;;;;;;5.40;4.03;;;;;;;8.46;82.25;100163.86;2965676;78;21653;-89
2022/12/28 14:17:08;;;;;;;6.65;3.47;;;;;;;8.47;82.80;100167.70;2946211;79;20979;-88
2022/12/28 14:21:09;;;;;;;7.50;4.00;;;;;;;8.50;81.96;100166.67;2917306;79;20963;-89
2022/12/28 14:25:14;;;;;;;12.88;4.03;;;;;;;8.49;82.12;100162.30;2987776;78;21609;-88
2022/12/28 14:29:32;;;;;;;6.53;3.98;;;;;;;8.47;81.62;100157.59;2972950;78;21058;-89
2022/12/28 14:33:53;;;;;;;7.33;5.42;;;;;;;8.48;82.12;100158.78;2970280;78;20940;-89
2022/12/28 14:37:58;;;;;;;6.17;3.92;;;;;;;8.46;82.52;100157.23;2957066;78;21007;-89
2022/12/28 14:42:02;;;;;;;4.13;3.33;;;;;;;8.43;82.85;100150.34;2973840;78;21582;-89
2022/12/28 14:46:33;;;;;;;3.42;3.00;;;;;;;8.35;83.16;100145.61;2978500;78;21030;-91
2022/12/28 14:50:34;;;;;;;4.55;3.42;;;;;;;8.34;83.15;100139.95;2971514;78;20987;-90
2022/12/28 14:54:53;;;;;;;4.80;3.15;;;;;;;8.33;82.75;100146.20;2981974;79;21026;-91
2022/12/28 14:58:58;;;;;;;4.40;2.87;;;;;;;8.28;82.96;100149.69;2901589;80;21010;-92
2022/12/28 15:03:19;;;;;;;6.97;4.33;;;;;;;8.24;83.32;100145.09;2936463;78;20999;-90
2022/12/28 15:07:20;;;;;;;6.78;4.30;;;;;;;8.22;83.62;100140.84;2908855;80;21534;-90
2022/12/28 15:11:23;;;;;;;3.58;3.25;;;;;;;8.14;83.37;100145.39;2904125;80;21023;-90
2022/12/28 15:15:25;;;;;;;6.00;3.83;;;;;;;8.14;83.51;100134.33;2922985;80;20958;-90
2022/12/28 15:19:26;;;;;;;5.65;3.80;;;;;;;8.10;83.52;100131.55;2910537;80;21007;-90
2022/12/28 15:23:27;;;;;;;6.70;3.95;;;;;;;8.04;83.98;100133.80;2968096;78;20983;-90
2022/12/28 15:27:29;;;;;;;8.38;3.60;;;;;;;8.03;83.99;100136.91;2974535;79;21045;-93
2022/12/28 15:31:30;;;;;;;6.62;3.90;;;;;;;8.07;84.07;100142.37;2962460;78;21003;-89
2022/12/28 15:35:32;;;;;;;5.55;3.12;;;;;;;8.06;84.41;100134.53;2968560;78;20971;-90
2022/12/28 15:39:35;;;;;;;7.53;4.40;;;;;;;8.06;84.18;100140.69;2965117;78;29266;-91
2022/12/28 15:43:36;;;;;;;4.70;3.42;;;;;;;8.07;84.11;100139.73;2940442;79;21415;-95
2022/12/28 15:47:38;;;;;;;7.33;4.55;;;;;;;8.08;84.03;100144.06;2957287;79;21023;-94
2022/12/28 15:51:40;;;;;;;5.17;3.83;;;;;;;8.09;83.75;100139.59;2994135;78;20990;-93
2022/12/28 15:55:42;;;;;;;6.70;4.47;;;;;;;8.08;83.50;100147.18;2951351;79;21010;-92
2022/12/28 15:59:44;;;;;;;8.23;5.12;;;;;;;8.07;83.89;100141.05;2932872;79;21018;-92
2022/12/28 16:03:50;;;;;;;10.82;5.17;;;;;;;8.03;84.21;100138.23;2986783;77;21026;-92
2022/12/28 16:07:52;;;;;;;9.15;5.47;;;;;;;8.05;84.05;100142.94;2998265;77;21358;-89
2022/12/28 16:11:53;;;;;;;8.75;4.45;;;;;;;8.08;83.96;100152.48;2976727;78;21054;-90
2022/12/28 16:15:54;;;;;;;6.67;4.92;;;;;;;8.09;84.29;100148.87;2908707;79;20967;-92
2022/12/28 16:19:55;;;;;;;5.78;4.12;;;;;;;8.10;84.34;100151.88;2916811;78;20999;-92
2022/12/28 16:23:59;;;;;;;7.78;4.70;;;;;;;8.08;84.10;100150.69;2945554;79;21515;-92
2022/12/28 16:28:00;;;;;;;11.97;5.22;;;;;;;8.12;84.13;100149.50;2935622;79;21487;-93
2022/12/28 16:32:02;;;;;;;9.70;5.62;;;;;;;8.10;84.15;100140.82;2955641;79;20984;-92
2022/12/28 16:36:09;;;;;;;9.68;5.58;;;;;;;8.13;84.27;100137.94;2890581;80;20999;-90
2022/12/28 16:40:11;;;;;;;7.90;5.00;;;;;;;8.12;84.30;100136.25;2956877;79;21502;-90
2022/12/28 16:44:19;;;;;;;7.08;4.25;;;;;;;8.11;84.48;100141.65;2952379;79;21058;-90
2022/12/28 16:48:21;;;;;;;8.35;6.28;;;;;;;8.11;84.53;100143.83;2961206;77;21579;-90
2022/12/28 16:52:22;;;;;;;6.45;4.20;;;;;;;8.11;84.28;100137.20;2966619;79;21483;-90
2022/12/28 16:56:24;;;;;;;9.75;6.75;;;;;;;8.07;84.09;100133.11;2964908;79;21069;-90
2022/12/28 17:00:26;;;;;;;11.73;5.50;;;;;;;8.07;84.02;100133.57;2960468;78;21026;-89
2022/12/28 17:04:28;;;;;;;9.18;6.75;;;;;;;8.07;83.72;100134.42;2961209;79;21066;-90
2022/12/28 17:08:30;;;;;;;8.18;3.98;;;;;;;8.08;83.93;100133.93;2961061;79;20983;-90
2022/12/28 17:12:31;;;;;;;8.65;4.87;;;;;;;8.06;83.88;100135.86;2945924;79;20987;-90
2022/12/28 17:16:33;;;;;;;4.67;3.80;;;;;;;8.07;84.01;100131.78;2960001;78;21009;-90
2022/12/28 17:20:38;;;;;;;4.53;3.58;;;;;;;8.05;84.27;100134.16;2926788;79;20960;-90
2022/12/28 17:24:40;;;;;;;4.20;3.40;;;;;;;8.06;84.31;100128.77;2969879;78;21354;-90
2022/12/28 17:28:41;;;;;;;5.37;4.00;;;;;;;8.09;84.68;100131.64;2980241;78;21018;-90
2022/12/28 17:32:43;;;;;;;5.28;4.35;;;;;;;8.13;85.08;100126.02;2977434;78;21034;-91
2022/12/28 17:36:44;;;;;;;8.25;5.08;;;;;;;8.16;84.72;100113.03;2973403;78;20991;-91
2022/12/28 17:40:45;;;;;;;7.17;4.62;;;;;;;8.15;85.13;100115.28;2932607;79;21498;-91
2022/12/28 17:44:47;;;;;;;5.58;4.08;;;;;;;8.14;84.68;100115.78;2899880;79;20970;-90
2022/12/28 17:48:52;;;;;;;5.92;3.87;;;;;;;8.18;84.95;100118.20;2983484;79;20978;-91
2022/12/28 17:52:53;;;;;;;5.67;4.53;;;;;;;8.18;84.84;100120.38;2948025;79;21031;-92
2022/12/28 17:56:55;;;;;;;16.70;5.40;;;;;;;8.18;85.15;100108.92;2941562;79;21014;-91
2022/12/28 18:00:57;;;;;;;8.10;4.85;;;;;;;8.17;85.01;100112.53;2985256;77;21554;-89
2022/12/28 18:04:58;;;;;;;6.33;4.20;;;;;;;8.22;84.88;100118.33;2914251;80;21007;-91
2022/12/28 18:09:00;;;;;;;4.45;3.75;;;;;;;8.26;84.41;100111.37;2964188;79;21521;-91
2022/12/28 18:13:01;;;;;;;5.65;5.15;;;;;;;8.31;84.19;100108.37;2839681;80;21064;-91
2022/12/28 18:17:03;;;;;;;9.45;6.58;;;;;;;8.35;83.91;100097.91;2992803;78;21018;-91
2022/12/28 18:21:08;;;;;;;7.40;5.20;;;;;;;8.37;83.38;100093.33;2973146;78;20990;-92
2022/12/28 18:25:09;;;;;;;7.62;6.08;;;;;;;8.46;83.49;100100.23;2986000;79;21557;-91
2022/12/28 18:29:10;;;;;;;12.75;8.58;;;;;;;8.47;83.18;100099.27;2967104;78;21085;-87
2022/12/28 18:33:12;;;;;;;18.70;10.93;;;;;;;8.51;82.99;100106.05;2987667;78;21022;-94
2022/12/28 18:37:13;;;;;;;16.12;9.05;;;;;;;8.49;83.11;100100.83;2969189;78;21050;-89
2022/12/28 18:41:17;;;;;;;13.32;8.90;;;;;;;8.53;82.90;100095.67;2986684;78;21053;-89
2022/12/28 18:45:19;;;;;;;9.88;6.87;;;;;;;8.57;82.70;100100.27;2987532;79;21030;-89
2022/12/28 18:49:20;;;;;;;13.58;7.05;;;;;;;8.59;83.09;100094.87;2948174;79;21015;-90
2022/12/28 18:53:24;;;;;;;5.50;4.50;;;;;;;8.64;82.94;100085.58;2929646;79;21046;-90
2022/12/28 18:57:26;;;;;;;7.97;3.95;;;;;;;8.63;82.85;100086.53;2938115;79;21516;-89
2022/12/28 19:01:28;;;;;;;3.85;3.47;;;;;;;8.63;82.49;100085.71;2930320;79;21027;-87
2022/12/28 19:05:29;;;;;;;4.92;3.50;;;;;;;8.65;82.66;100085.97;2929836;79;20995;-88
2022/12/28 19:09:31;;;;;;;6.12;3.58;;;;;;;8.63;82.77;100081.23;2938644;79;21696;-88
2022/12/28 19:13:35;;;;;;;6.22;4.00;;;;;;;8.62;82.66;100084.84;2911639;79;21013;-87
2022/12/28 19:17:37;;;;;;;5.20;4.58;;;;;;;8.59;82.92;100083.77;2947105;79;21175;-88
2022/12/28 19:21:40;;;;;;;8.38;5.47;;;;;;;8.61;82.86;100081.84;2951631;79;21054;-88
2022/12/28 19:25:42;;;;;;;5.42;4.42;;;;;;;8.60;82.73;100077.50;2941308;79;21014;-88
2022/12/28 19:29:43;;;;;;;13.13;4.50;;;;;;;8.64;82.51;100082.92;2905655;79;21491;-88
2022/12/28 19:33:44;;;;;;;7.33;5.53;;;;;;;8.63;82.68;100069.30;2957244;78;21007;-89
2022/12/28 19:37:46;;;;;;;9.03;4.97;;;;;;;8.58;82.68;100066.17;2942590;79;21407;-89
2022/12/28 19:41:48;;;;;;;6.90;4.90;;;;;;;8.61;82.86;100055.82;2933725;79;21030;-89